หน้าหลัก
METAR-TAF:

METAR-TAF

ท่าอากาศยาน :

Vereeniging, แอฟริกาใต้

ละติจูด: 26-34-29S, ลองจิจูด: 027-57-45E, ความสูง: 1483 ม.

การสังเกตสภาพอากาศปัจจุบัน

รายงานได้ทำขึ้นเมื่อ 19 นาทีที่แล้ว ณ เวลา 08:00 UTC
ลม 3 นอตจากใต้
อุณหภูมิ 22°C
ความชื้น 46%
ความกดอากาศ 1028 hPa

METAR: FAVV 200800Z AUTO 19003KT //// // ////// 22/10 Q1028

เวลา: 10:19 (08:19 UTC)


TAF: หายไป

สังเกตการณ์สภาพอากาศและพยากรณ์อากาศของสนามบินมากกว่า 4000 แห่ง (รายงาน METAR และ TAF).

สถานีที่ดูได้จะแสดงไว้ด้วยจุดสีเหลืองและสีแดงบนแผนที่.

เลื่อนเมาส์ไปเหนือจุดเพื่อดูชื่อสถานี.

แล้วคลิกเพื่อดูสังเกตการณ์และการพยากรณ์สภาพอากาศ.

ในการเปลี่ยนแผนที่: คลิกที่ปุ่มสีเขียวที่มีกากบาทสีดำเพื่อซูมเข้า; ที่ปุ่มสีเขียวที่มีขีดเพื่อซูมออก; หรือที่ลูกศรสีเขียวเพื่อไปยังแผนที่ที่อยู่ติดกัน.


METAR-TAF: